createdAt,value
2023-08-14T00:06:13.431Z,64.45
2023-08-14T00:13:19.815Z,64.60
2023-08-14T00:20:21.416Z,64.93
2023-08-14T00:27:23.763Z,63.97
2023-08-14T00:34:25.388Z,68.28
2023-08-14T00:41:27.126Z,63.40
2023-08-14T00:48:28.901Z,66.30
2023-08-14T00:55:30.548Z,66.28
2023-08-14T01:02:32.825Z,68.57
2023-08-14T01:09:34.455Z,71.03
2023-08-14T01:16:38.521Z,73.45
2023-08-14T01:23:53.853Z,78.57
2023-08-14T01:30:55.645Z,79.78
2023-08-14T01:38:04.126Z,83.50
2023-08-14T01:45:13.573Z,79.13
2023-08-14T01:59:16.847Z,85.18
2023-08-14T02:06:18.474Z,79.10
2023-08-14T02:13:20.155Z,78.60
2023-08-14T02:20:21.767Z,75.85
2023-08-14T02:27:23.419Z,74.38
2023-08-14T02:34:43.882Z,76.85
2023-08-14T02:41:46.147Z,80.20
2023-08-14T02:48:48.097Z,81.30
2023-08-14T02:55:53.677Z,84.28
2023-08-14T03:02:55.342Z,86.28
2023-08-14T03:09:57.604Z,85.28
2023-08-14T03:16:59.294Z,87.38
2023-08-14T03:24:04.713Z,89.35
2023-08-14T03:31:07.865Z,91.93
2023-08-14T03:38:09.673Z,95.13
2023-08-14T03:45:11.601Z,95.03
2023-08-14T03:52:13.378Z,97.15
2023-08-14T03:59:15.593Z,97.80
2023-08-14T04:06:19.469Z,98.82
2023-08-14T04:13:21.252Z,98.20
2023-08-14T04:20:24.044Z,99.47
2023-08-14T04:27:25.906Z,102.18
2023-08-14T04:34:27.611Z,101.90
2023-08-14T04:41:29.988Z,102.57
2023-08-14T04:48:31.827Z,101.32
2023-08-14T04:55:34.372Z,100.47
2023-08-14T05:02:36.215Z,100.47
2023-08-14T05:09:38.547Z,100.57
2023-08-14T05:16:40.613Z,100.47
2023-08-14T05:23:44.167Z,97.63
2023-08-14T05:30:45.935Z,99.18
2023-08-14T05:37:47.545Z,97.28
2023-08-14T05:44:49.164Z,96.82
2023-08-14T05:51:50.761Z,99.45
2023-08-14T05:58:52.459Z,100.85
2023-08-14T06:05:54.231Z,100.90
2023-08-14T06:12:55.906Z,99.97
2023-08-14T06:19:57.581Z,97.55
2023-08-14T06:26:59.257Z,98.25
2023-08-14T06:34:00.872Z,95.32
2023-08-14T06:41:03.052Z,96.70
2023-08-14T06:48:05.122Z,94.20
2023-08-14T06:55:07.067Z,97.18
2023-08-14T07:02:08.728Z,92.05
2023-08-14T07:09:10.761Z,93.70
2023-08-14T07:16:12.420Z,96.28
2023-08-14T07:23:15.945Z,84.93
2023-08-14T07:30:17.571Z,83.53
2023-08-14T07:37:19.208Z,85.75
2023-08-14T07:44:20.839Z,74.20
2023-08-14T07:51:22.484Z,68.15
2023-08-14T07:58:24.105Z,53.63
2023-08-14T08:05:25.756Z,43.72
2023-08-14T08:12:27.428Z,41.22
2023-08-14T08:19:29.075Z,48.90
2023-08-14T08:26:30.844Z,34.85
2023-08-14T08:33:32.576Z,18.52
2023-08-14T08:40:34.237Z,14.55
2023-08-14T08:47:38.344Z,9.75
2023-08-14T08:54:40.090Z,12.70
2023-08-14T09:01:42.082Z,9.27
2023-08-14T09:08:43.784Z,9.35
2023-08-14T09:15:45.925Z,10.48
2023-08-14T09:22:48.083Z,7.50
2023-08-14T09:29:52.227Z,7.28
2023-08-14T09:36:53.836Z,7.18
2023-08-14T09:43:55.472Z,7.90
2023-08-14T09:50:57.164Z,7.63
2023-08-14T09:57:59.054Z,7.32
2023-08-14T10:05:01.406Z,7.13
2023-08-14T10:12:05.510Z,6.85
2023-08-14T10:19:10.475Z,7.72
2023-08-14T10:26:12.152Z,7.05
2023-08-14T10:33:14.024Z,7.07
2023-08-14T10:40:25.710Z,5.90
2023-08-14T10:47:27.334Z,6.97
2023-08-14T10:54:28.969Z,5.47
2023-08-14T11:01:36.191Z,5.32
2023-08-14T11:08:37.807Z,7.53
2023-08-14T11:15:40.165Z,6.13
2023-08-14T11:22:45.584Z,4.25
2023-08-14T11:29:53.430Z,4.70
2023-08-14T11:44:06.860Z,4.07
2023-08-14T11:51:08.612Z,3.65
2023-08-14T11:58:10.284Z,4.47
2023-08-14T12:05:11.893Z,4.22
2023-08-14T12:12:13.620Z,4.32
2023-08-14T12:19:15.220Z,4.07
2023-08-14T12:26:17.012Z,3.70
2023-08-14T12:33:18.661Z,4.78
2023-08-14T12:40:20.310Z,4.32
2023-08-14T12:47:22.297Z,4.38
2023-08-14T12:54:24.414Z,4.72
2023-08-14T13:01:26.174Z,4.25
2023-08-14T13:08:27.861Z,3.95
2023-08-14T13:15:29.450Z,4.88
2023-08-14T13:22:31.071Z,3.63
2023-08-14T13:29:32.884Z,4.18
2023-08-14T13:36:34.496Z,4.57
2023-08-14T13:43:36.155Z,4.60
2023-08-14T13:50:38.563Z,4.38
2023-08-14T13:57:41.133Z,3.30
2023-08-14T14:04:43.101Z,2.97
2023-08-14T14:11:44.734Z,3.30
2023-08-14T14:18:46.320Z,3.28
2023-08-14T14:25:48.027Z,3.22
2023-08-14T14:32:49.726Z,4.18
2023-08-14T14:39:51.374Z,3.60
2023-08-14T14:46:53.010Z,3.38
2023-08-14T14:53:54.658Z,4.38
2023-08-14T15:00:56.266Z,4.25
2023-08-14T15:07:58.542Z,4.50
2023-08-14T15:15:00.241Z,4.40
2023-08-14T15:22:02.063Z,5.10
2023-08-14T15:29:03.753Z,4.95
2023-08-14T15:36:05.722Z,6.90
2023-08-14T15:43:07.356Z,5.20
2023-08-14T15:50:09.490Z,4.75
2023-08-14T15:57:11.120Z,4.75
2023-08-14T16:04:12.804Z,4.55
2023-08-14T16:11:14.497Z,4.07
2023-08-14T16:18:16.154Z,4.50
2023-08-14T16:25:17.936Z,3.95
2023-08-14T16:32:19.552Z,4.00
2023-08-14T16:39:21.146Z,4.43
2023-08-14T16:46:23.499Z,4.05
2023-08-14T16:53:25.247Z,4.30
2023-08-14T17:00:26.980Z,4.60
2023-08-14T17:07:28.725Z,4.38
2023-08-14T17:14:30.440Z,4.63
2023-08-14T17:21:32.077Z,4.32
2023-08-14T17:28:33.708Z,4.55
2023-08-14T17:35:35.362Z,5.15
2023-08-14T17:42:37.057Z,5.13
2023-08-14T17:49:38.676Z,5.28
2023-08-14T17:56:40.335Z,4.93
2023-08-14T18:03:42.129Z,6.03
2023-08-14T18:10:43.794Z,5.50
2023-08-14T18:17:45.487Z,9.63
2023-08-14T18:24:47.374Z,24.80
2023-08-14T18:31:49.081Z,9.38
2023-08-14T18:38:50.794Z,8.10
2023-08-14T18:45:54.177Z,9.55
2023-08-14T18:52:55.885Z,6.78
2023-08-14T18:59:57.550Z,8.48
2023-08-14T19:06:59.210Z,7.85
2023-08-14T19:14:00.824Z,5.93
2023-08-14T19:21:03.298Z,6.97
2023-08-14T19:28:19.489Z,6.55
2023-08-14T19:35:23.811Z,6.72
2023-08-14T19:42:25.509Z,8.63
2023-08-14T19:49:27.151Z,8.40
2023-08-14T19:56:28.961Z,26.58
2023-08-14T20:03:30.956Z,35.67
2023-08-14T20:10:32.721Z,45.88
2023-08-14T20:17:34.379Z,51.00
2023-08-14T20:24:36.015Z,58.55
2023-08-14T20:31:37.614Z,60.42
2023-08-14T20:38:39.292Z,64.82
2023-08-14T20:45:40.965Z,58.90
2023-08-14T20:52:42.584Z,51.58
2023-08-14T20:59:45.650Z,42.22
2023-08-14T21:06:47.227Z,31.30
2023-08-14T21:13:48.811Z,32.05
2023-08-14T21:20:50.448Z,18.13
2023-08-14T21:27:52.092Z,15.50
2023-08-14T21:34:53.892Z,19.13
2023-08-14T21:41:55.537Z,14.77
2023-08-14T21:48:57.296Z,21.10
2023-08-14T21:55:58.917Z,23.38
2023-08-14T22:03:00.749Z,24.73
2023-08-14T22:10:03.644Z,28.42
2023-08-14T22:17:05.362Z,30.17
2023-08-14T22:24:07.354Z,39.20
2023-08-14T22:31:14.594Z,46.13
2023-08-14T22:38:16.237Z,53.00
2023-08-14T22:45:17.913Z,58.88
2023-08-14T22:52:19.597Z,65.55
2023-08-14T22:59:21.340Z,70.03
2023-08-14T23:06:23.031Z,80.38
2023-08-14T23:13:24.663Z,82.13
2023-08-14T23:20:26.385Z,80.75
2023-08-14T23:27:28.149Z,83.00
2023-08-14T23:34:30.763Z,86.28
2023-08-14T23:41:33.457Z,97.25
2023-08-14T23:48:35.074Z,88.38
2023-08-14T23:55:36.690Z,72.13
